sensor_id;sensor_type;location;lat;lon;timestamp;P1;durP1;ratioP1;P2;durP2;ratioP2
5341;SDS011;2693;48.822;9.062;2024-03-22T00:01:11;22.20;;;12.57;;
5341;SDS011;2693;48.822;9.062;2024-03-22T00:03:36;25.65;;;14.05;;
5341;SDS011;2693;48.822;9.062;2024-03-22T00:06:01;22.67;;;13.40;;
5341;SDS011;2693;48.822;9.062;2024-03-22T00:08:27;22.70;;;12.25;;
5341;SDS011;2693;48.822;9.062;2024-03-22T00:10:53;24.92;;;13.27;;
5341;SDS011;2693;48.822;9.062;2024-03-22T00:13:18;22.58;;;12.20;;
5341;SDS011;2693;48.822;9.062;2024-03-22T00:15:43;21.33;;;12.93;;
5341;SDS011;2693;48.822;9.062;2024-03-22T00:18:10;20.52;;;13.35;;
5341;SDS011;2693;48.822;9.062;2024-03-22T00:20:36;22.92;;;12.43;;
5341;SDS011;2693;48.822;9.062;2024-03-22T00:23:01;21.83;;;12.55;;
5341;SDS011;2693;48.822;9.062;2024-03-22T00:25:27;21.30;;;12.95;;
5341;SDS011;2693;48.822;9.062;2024-03-22T00:27:52;19.88;;;12.65;;
5341;SDS011;2693;48.822;9.062;2024-03-22T00:30:17;19.02;;;12.20;;
5341;SDS011;2693;48.822;9.062;2024-03-22T00:32:43;19.42;;;12.75;;
5341;SDS011;2693;48.822;9.062;2024-03-22T00:35:09;22.23;;;12.35;;
5341;SDS011;2693;48.822;9.062;2024-03-22T00:37:35;23.00;;;12.93;;
5341;SDS011;2693;48.822;9.062;2024-03-22T00:40:00;19.05;;;12.00;;
5341;SDS011;2693;48.822;9.062;2024-03-22T00:42:26;23.25;;;12.43;;
5341;SDS011;2693;48.822;9.062;2024-03-22T00:44:51;22.70;;;13.40;;
5341;SDS011;2693;48.822;9.062;2024-03-22T00:47:17;18.70;;;11.65;;
5341;SDS011;2693;48.822;9.062;2024-03-22T00:49:42;21.05;;;12.43;;
5341;SDS011;2693;48.822;9.062;2024-03-22T00:52:07;18.73;;;11.27;;
5341;SDS011;2693;48.822;9.062;2024-03-22T00:54:33;20.08;;;12.43;;
5341;SDS011;2693;48.822;9.062;2024-03-22T00:56:58;19.55;;;12.13;;
5341;SDS011;2693;48.822;9.062;2024-03-22T00:59:24;18.83;;;11.20;;
5341;SDS011;2693;48.822;9.062;2024-03-22T01:01:49;19.83;;;11.85;;
5341;SDS011;2693;48.822;9.062;2024-03-22T01:04:14;19.13;;;11.50;;
5341;SDS011;2693;48.822;9.062;2024-03-22T01:06:40;20.17;;;12.60;;
5341;SDS011;2693;48.822;9.062;2024-03-22T01:09:05;17.85;;;11.45;;
5341;SDS011;2693;48.822;9.062;2024-03-22T01:11:32;18.58;;;11.48;;
5341;SDS011;2693;48.822;9.062;2024-03-22T01:13:57;20.77;;;11.93;;
5341;SDS011;2693;48.822;9.062;2024-03-22T01:16:23;20.08;;;11.43;;
5341;SDS011;2693;48.822;9.062;2024-03-22T01:18:48;19.83;;;11.65;;
5341;SDS011;2693;48.822;9.062;2024-03-22T01:21:13;18.67;;;11.07;;
5341;SDS011;2693;48.822;9.062;2024-03-22T01:23:39;19.83;;;11.85;;
5341;SDS011;2693;48.822;9.062;2024-03-22T01:26:04;21.00;;;11.30;;
5341;SDS011;2693;48.822;9.062;2024-03-22T01:28:29;18.67;;;11.95;;
5341;SDS011;2693;48.822;9.062;2024-03-22T01:30:55;20.13;;;12.02;;
5341;SDS011;2693;48.822;9.062;2024-03-22T01:33:20;18.27;;;11.68;;
5341;SDS011;2693;48.822;9.062;2024-03-22T01:35:45;25.20;;;12.73;;
5341;SDS011;2693;48.822;9.062;2024-03-22T01:38:11;21.38;;;11.98;;
5341;SDS011;2693;48.822;9.062;2024-03-22T01:40:36;18.58;;;12.10;;
5341;SDS011;2693;48.822;9.062;2024-03-22T01:43:01;18.60;;;11.68;;
5341;SDS011;2693;48.822;9.062;2024-03-22T01:45:27;21.27;;;12.18;;
5341;SDS011;2693;48.822;9.062;2024-03-22T01:47:57;18.70;;;11.55;;
5341;SDS011;2693;48.822;9.062;2024-03-22T01:50:22;21.95;;;12.02;;
5341;SDS011;2693;48.822;9.062;2024-03-22T01:52:48;21.00;;;11.93;;
5341;SDS011;2693;48.822;9.062;2024-03-22T01:55:14;19.17;;;11.45;;
5341;SDS011;2693;48.822;9.062;2024-03-22T01:57:39;21.02;;;11.60;;
5341;SDS011;2693;48.822;9.062;2024-03-22T02:00:05;22.15;;;12.43;;
5341;SDS011;2693;48.822;9.062;2024-03-22T02:02:33;18.27;;;11.52;;
5341;SDS011;2693;48.822;9.062;2024-03-22T02:04:59;21.30;;;11.23;;
5341;SDS011;2693;48.822;9.062;2024-03-22T02:07:24;20.75;;;12.00;;
5341;SDS011;2693;48.822;9.062;2024-03-22T02:09:50;20.70;;;12.10;;
5341;SDS011;2693;48.822;9.062;2024-03-22T02:12:15;18.88;;;12.27;;
5341;SDS011;2693;48.822;9.062;2024-03-22T02:14:41;20.08;;;11.10;;
5341;SDS011;2693;48.822;9.062;2024-03-22T02:17:06;20.50;;;11.43;;
5341;SDS011;2693;48.822;9.062;2024-03-22T02:19:31;19.75;;;11.40;;
5341;SDS011;2693;48.822;9.062;2024-03-22T02:21:57;19.65;;;11.38;;
5341;SDS011;2693;48.822;9.062;2024-03-22T02:24:22;19.50;;;12.05;;
5341;SDS011;2693;48.822;9.062;2024-03-22T02:26:47;19.02;;;11.45;;
5341;SDS011;2693;48.822;9.062;2024-03-22T02:29:13;20.88;;;11.43;;
5341;SDS011;2693;48.822;9.062;2024-03-22T02:31:38;22.20;;;11.40;;
5341;SDS011;2693;48.822;9.062;2024-03-22T02:34:04;18.60;;;11.25;;
5341;SDS011;2693;48.822;9.062;2024-03-22T02:36:29;22.05;;;11.88;;
5341;SDS011;2693;48.822;9.062;2024-03-22T02:38:54;17.92;;;11.40;;
5341;SDS011;2693;48.822;9.062;2024-03-22T02:41:20;17.38;;;11.68;;
5341;SDS011;2693;48.822;9.062;2024-03-22T02:43:46;21.42;;;10.88;;
5341;SDS011;2693;48.822;9.062;2024-03-22T02:46:11;18.67;;;11.43;;
5341;SDS011;2693;48.822;9.062;2024-03-22T02:48:37;19.95;;;11.18;;
5341;SDS011;2693;48.822;9.062;2024-03-22T02:51:02;20.75;;;11.57;;
5341;SDS011;2693;48.822;9.062;2024-03-22T02:53:28;22.58;;;13.18;;
5341;SDS011;2693;48.822;9.062;2024-03-22T02:55:53;23.48;;;12.93;;
5341;SDS011;2693;48.822;9.062;2024-03-22T02:58:20;20.45;;;11.65;;
5341;SDS011;2693;48.822;9.062;2024-03-22T03:00:45;21.05;;;11.77;;
5341;SDS011;2693;48.822;9.062;2024-03-22T03:03:10;18.73;;;12.05;;
5341;SDS011;2693;48.822;9.062;2024-03-22T03:05:36;20.38;;;11.88;;
5341;SDS011;2693;48.822;9.062;2024-03-22T03:08:01;20.73;;;12.27;;
5341;SDS011;2693;48.822;9.062;2024-03-22T03:10:28;20.17;;;11.60;;
5341;SDS011;2693;48.822;9.062;2024-03-22T03:12:56;21.98;;;11.63;;
5341;SDS011;2693;48.822;9.062;2024-03-22T03:15:21;18.13;;;11.02;;
5341;SDS011;2693;48.822;9.062;2024-03-22T03:17:46;21.17;;;10.63;;
5341;SDS011;2693;48.822;9.062;2024-03-22T03:20:12;20.10;;;11.07;;
5341;SDS011;2693;48.822;9.062;2024-03-22T03:22:39;18.10;;;11.63;;
5341;SDS011;2693;48.822;9.062;2024-03-22T03:25:07;18.77;;;10.25;;
5341;SDS011;2693;48.822;9.062;2024-03-22T03:27:33;18.05;;;10.23;;
5341;SDS011;2693;48.822;9.062;2024-03-22T03:29:58;16.80;;;10.43;;
5341;SDS011;2693;48.822;9.062;2024-03-22T03:32:24;14.88;;;9.65;;
5341;SDS011;2693;48.822;9.062;2024-03-22T03:34:50;18.02;;;10.32;;
5341;SDS011;2693;48.822;9.062;2024-03-22T03:37:15;16.67;;;9.82;;
5341;SDS011;2693;48.822;9.062;2024-03-22T03:39:41;15.20;;;10.18;;
5341;SDS011;2693;48.822;9.062;2024-03-22T03:42:06;18.23;;;10.32;;
5341;SDS011;2693;48.822;9.062;2024-03-22T03:44:32;19.90;;;10.70;;
5341;SDS011;2693;48.822;9.062;2024-03-22T03:46:57;16.30;;;9.82;;
5341;SDS011;2693;48.822;9.062;2024-03-22T03:49:22;19.27;;;10.70;;
5341;SDS011;2693;48.822;9.062;2024-03-22T03:51:48;16.55;;;9.95;;
5341;SDS011;2693;48.822;9.062;2024-03-22T03:54:13;15.45;;;10.27;;
5341;SDS011;2693;48.822;9.062;2024-03-22T03:56:38;17.20;;;9.60;;
5341;SDS011;2693;48.822;9.062;2024-03-22T03:59:04;14.70;;;9.88;;
5341;SDS011;2693;48.822;9.062;2024-03-22T04:01:29;15.77;;;9.90;;
5341;SDS011;2693;48.822;9.062;2024-03-22T04:03:54;13.23;;;9.32;;
5341;SDS011;2693;48.822;9.062;2024-03-22T04:06:20;16.08;;;8.73;;
5341;SDS011;2693;48.822;9.062;2024-03-22T04:08:45;15.18;;;8.73;;
5341;SDS011;2693;48.822;9.062;2024-03-22T04:11:10;15.43;;;9.10;;
5341;SDS011;2693;48.822;9.062;2024-03-22T04:13:36;14.85;;;9.45;;
5341;SDS011;2693;48.822;9.062;2024-03-22T04:16:02;14.10;;;8.88;;
5341;SDS011;2693;48.822;9.062;2024-03-22T04:18:27;12.77;;;8.45;;
5341;SDS011;2693;48.822;9.062;2024-03-22T04:20:53;11.73;;;8.13;;
5341;SDS011;2693;48.822;9.062;2024-03-22T04:23:19;12.77;;;8.95;;
5341;SDS011;2693;48.822;9.062;2024-03-22T04:25:52;16.00;;;9.25;;
5341;SDS011;2693;48.822;9.062;2024-03-22T04:28:18;12.45;;;7.25;;
5341;SDS011;2693;48.822;9.062;2024-03-22T04:30:43;11.52;;;8.35;;
5341;SDS011;2693;48.822;9.062;2024-03-22T04:33:09;11.88;;;8.77;;
5341;SDS011;2693;48.822;9.062;2024-03-22T04:35:34;14.40;;;8.52;;
5341;SDS011;2693;48.822;9.062;2024-03-22T04:37:59;11.48;;;7.95;;
5341;SDS011;2693;48.822;9.062;2024-03-22T04:40:25;13.73;;;8.48;;
5341;SDS011;2693;48.822;9.062;2024-03-22T04:42:51;12.68;;;8.02;;
5341;SDS011;2693;48.822;9.062;2024-03-22T04:45:17;14.35;;;8.10;;
5341;SDS011;2693;48.822;9.062;2024-03-22T04:47:42;10.65;;;7.43;;
5341;SDS011;2693;48.822;9.062;2024-03-22T04:50:08;10.82;;;7.25;;
5341;SDS011;2693;48.822;9.062;2024-03-22T04:52:34;10.23;;;7.18;;
5341;SDS011;2693;48.822;9.062;2024-03-22T04:54:59;10.13;;;7.10;;
5341;SDS011;2693;48.822;9.062;2024-03-22T04:57:26;11.07;;;6.63;;
5341;SDS011;2693;48.822;9.062;2024-03-22T04:59:52;9.35;;;6.63;;
5341;SDS011;2693;48.822;9.062;2024-03-22T05:02:17;9.48;;;6.85;;
5341;SDS011;2693;48.822;9.062;2024-03-22T05:04:43;9.82;;;6.68;;
5341;SDS011;2693;48.822;9.062;2024-03-22T05:07:08;12.75;;;7.30;;
5341;SDS011;2693;48.822;9.062;2024-03-22T05:09:33;9.95;;;6.95;;
5341;SDS011;2693;48.822;9.062;2024-03-22T05:11:59;12.25;;;7.15;;
5341;SDS011;2693;48.822;9.062;2024-03-22T05:14:24;9.98;;;6.70;;
5341;SDS011;2693;48.822;9.062;2024-03-22T05:16:49;13.23;;;7.63;;
5341;SDS011;2693;48.822;9.062;2024-03-22T05:19:15;13.07;;;7.53;;
5341;SDS011;2693;48.822;9.062;2024-03-22T05:21:40;10.27;;;7.30;;
5341;SDS011;2693;48.822;9.062;2024-03-22T05:24:06;10.80;;;7.45;;
5341;SDS011;2693;48.822;9.062;2024-03-22T05:26:31;10.98;;;7.65;;
5341;SDS011;2693;48.822;9.062;2024-03-22T05:29:01;10.45;;;7.35;;
5341;SDS011;2693;48.822;9.062;2024-03-22T05:31:27;10.95;;;7.07;;
5341;SDS011;2693;48.822;9.062;2024-03-22T05:33:53;10.88;;;7.10;;
5341;SDS011;2693;48.822;9.062;2024-03-22T05:36:18;11.23;;;7.05;;
5341;SDS011;2693;48.822;9.062;2024-03-22T05:38:43;11.15;;;7.07;;
5341;SDS011;2693;48.822;9.062;2024-03-22T05:41:09;12.18;;;7.05;;
5341;SDS011;2693;48.822;9.062;2024-03-22T05:43:34;13.15;;;7.22;;
5341;SDS011;2693;48.822;9.062;2024-03-22T05:46:00;12.57;;;6.90;;
5341;SDS011;2693;48.822;9.062;2024-03-22T05:48:25;13.43;;;7.85;;
5341;SDS011;2693;48.822;9.062;2024-03-22T05:50:51;8.93;;;6.40;;
5341;SDS011;2693;48.822;9.062;2024-03-22T05:53:17;9.18;;;5.85;;
5341;SDS011;2693;48.822;9.062;2024-03-22T05:55:42;7.05;;;5.70;;
5341;SDS011;2693;48.822;9.062;2024-03-22T05:58:08;8.70;;;6.25;;
5341;SDS011;2693;48.822;9.062;2024-03-22T06:00:34;10.30;;;6.30;;
5341;SDS011;2693;48.822;9.062;2024-03-22T06:02:59;8.68;;;6.30;;
5341;SDS011;2693;48.822;9.062;2024-03-22T06:05:25;10.15;;;6.15;;
5341;SDS011;2693;48.822;9.062;2024-03-22T06:07:50;7.72;;;5.70;;
5341;SDS011;2693;48.822;9.062;2024-03-22T06:10:15;10.63;;;5.97;;
5341;SDS011;2693;48.822;9.062;2024-03-22T06:12:42;7.30;;;5.43;;
5341;SDS011;2693;48.822;9.062;2024-03-22T06:15:09;9.20;;;6.00;;
5341;SDS011;2693;48.822;9.062;2024-03-22T06:17:35;7.97;;;5.40;;
5341;SDS011;2693;48.822;9.062;2024-03-22T06:20:00;7.85;;;5.43;;
5341;SDS011;2693;48.822;9.062;2024-03-22T06:22:26;7.30;;;4.90;;
5341;SDS011;2693;48.822;9.062;2024-03-22T06:24:52;8.40;;;5.53;;
5341;SDS011;2693;48.822;9.062;2024-03-22T06:27:18;7.57;;;5.45;;
5341;SDS011;2693;48.822;9.062;2024-03-22T06:29:43;7.80;;;4.57;;
5341;SDS011;2693;48.822;9.062;2024-03-22T06:32:08;7.47;;;4.85;;
5341;SDS011;2693;48.822;9.062;2024-03-22T06:34:34;7.63;;;4.75;;
5341;SDS011;2693;48.822;9.062;2024-03-22T06:36:59;7.45;;;4.82;;
5341;SDS011;2693;48.822;9.062;2024-03-22T06:39:25;6.53;;;5.20;;
5341;SDS011;2693;48.822;9.062;2024-03-22T06:41:50;6.85;;;4.53;;
5341;SDS011;2693;48.822;9.062;2024-03-22T06:44:15;7.93;;;5.30;;
5341;SDS011;2693;48.822;9.062;2024-03-22T06:46:41;6.22;;;4.78;;
5341;SDS011;2693;48.822;9.062;2024-03-22T06:49:06;7.00;;;4.90;;
5341;SDS011;2693;48.822;9.062;2024-03-22T06:51:32;7.70;;;4.65;;
5341;SDS011;2693;48.822;9.062;2024-03-22T06:53:57;7.40;;;4.85;;
5341;SDS011;2693;48.822;9.062;2024-03-22T06:56:22;6.75;;;5.13;;
5341;SDS011;2693;48.822;9.062;2024-03-22T06:58:48;6.65;;;4.63;;
5341;SDS011;2693;48.822;9.062;2024-03-22T07:01:13;5.05;;;4.50;;
5341;SDS011;2693;48.822;9.062;2024-03-22T07:03:38;5.72;;;4.90;;
5341;SDS011;2693;48.822;9.062;2024-03-22T07:06:04;6.05;;;4.75;;
5341;SDS011;2693;48.822;9.062;2024-03-22T07:08:32;7.63;;;5.22;;
5341;SDS011;2693;48.822;9.062;2024-03-22T07:10:57;7.15;;;5.22;;
5341;SDS011;2693;48.822;9.062;2024-03-22T07:13:23;7.93;;;5.05;;
5341;SDS011;2693;48.822;9.062;2024-03-22T07:15:48;6.35;;;5.20;;
5341;SDS011;2693;48.822;9.062;2024-03-22T07:18:14;7.05;;;5.28;;
5341;SDS011;2693;48.822;9.062;2024-03-22T07:20:40;7.35;;;5.18;;
5341;SDS011;2693;48.822;9.062;2024-03-22T07:23:06;6.05;;;5.00;;
5341;SDS011;2693;48.822;9.062;2024-03-22T07:25:32;6.35;;;5.43;;
5341;SDS011;2693;48.822;9.062;2024-03-22T07:27:57;7.53;;;5.35;;
5341;SDS011;2693;48.822;9.062;2024-03-22T07:30:22;8.77;;;5.55;;
5341;SDS011;2693;48.822;9.062;2024-03-22T07:32:48;6.20;;;5.40;;
5341;SDS011;2693;48.822;9.062;2024-03-22T07:35:13;6.90;;;5.30;;
5341;SDS011;2693;48.822;9.062;2024-03-22T07:37:39;7.40;;;5.25;;
5341;SDS011;2693;48.822;9.062;2024-03-22T07:40:04;5.55;;;4.72;;
5341;SDS011;2693;48.822;9.062;2024-03-22T07:42:30;6.47;;;4.57;;
5341;SDS011;2693;48.822;9.062;2024-03-22T07:44:56;6.28;;;4.68;;
5341;SDS011;2693;48.822;9.062;2024-03-22T07:47:21;6.75;;;4.95;;
5341;SDS011;2693;48.822;9.062;2024-03-22T07:49:46;5.88;;;4.57;;
5341;SDS011;2693;48.822;9.062;2024-03-22T07:52:12;5.55;;;4.90;;
5341;SDS011;2693;48.822;9.062;2024-03-22T07:54:37;5.63;;;4.22;;
5341;SDS011;2693;48.822;9.062;2024-03-22T07:57:02;4.97;;;4.47;;
5341;SDS011;2693;48.822;9.062;2024-03-22T07:59:29;5.72;;;4.78;;
5341;SDS011;2693;48.822;9.062;2024-03-22T08:01:54;5.88;;;3.72;;
5341;SDS011;2693;48.822;9.062;2024-03-22T08:04:19;6.55;;;4.57;;
5341;SDS011;2693;48.822;9.062;2024-03-22T08:06:45;7.47;;;5.28;;
5341;SDS011;2693;48.822;9.062;2024-03-22T08:09:11;5.88;;;4.30;;
5341;SDS011;2693;48.822;9.062;2024-03-22T08:11:36;5.55;;;4.45;;
5341;SDS011;2693;48.822;9.062;2024-03-22T08:14:01;6.70;;;5.20;;
5341;SDS011;2693;48.822;9.062;2024-03-22T08:16:29;5.95;;;4.75;;
5341;SDS011;2693;48.822;9.062;2024-03-22T08:18:54;5.05;;;4.30;;
5341;SDS011;2693;48.822;9.062;2024-03-22T08:21:20;4.93;;;4.07;;
5341;SDS011;2693;48.822;9.062;2024-03-22T08:23:46;5.38;;;4.18;;
5341;SDS011;2693;48.822;9.062;2024-03-22T08:26:12;5.68;;;4.20;;
5341;SDS011;2693;48.822;9.062;2024-03-22T08:28:37;4.45;;;4.05;;
5341;SDS011;2693;48.822;9.062;2024-03-22T08:31:03;6.85;;;4.25;;
5341;SDS011;2693;48.822;9.062;2024-03-22T08:33:29;5.88;;;4.53;;
5341;SDS011;2693;48.822;9.062;2024-03-22T08:35:55;7.65;;;4.70;;
5341;SDS011;2693;48.822;9.062;2024-03-22T08:38:20;6.25;;;4.55;;
5341;SDS011;2693;48.822;9.062;2024-03-22T08:40:46;9.93;;;4.93;;
5341;SDS011;2693;48.822;9.062;2024-03-22T08:43:11;7.00;;;4.72;;
5341;SDS011;2693;48.822;9.062;2024-03-22T08:45:36;6.00;;;4.65;;
5341;SDS011;2693;48.822;9.062;2024-03-22T08:48:02;6.80;;;5.07;;
5341;SDS011;2693;48.822;9.062;2024-03-22T08:50:27;6.35;;;4.82;;
5341;SDS011;2693;48.822;9.062;2024-03-22T08:52:53;7.22;;;5.10;;
5341;SDS011;2693;48.822;9.062;2024-03-22T08:55:18;7.82;;;4.38;;
5341;SDS011;2693;48.822;9.062;2024-03-22T08:57:43;7.07;;;4.60;;
5341;SDS011;2693;48.822;9.062;2024-03-22T09:00:09;6.88;;;4.78;;
5341;SDS011;2693;48.822;9.062;2024-03-22T09:02:35;6.03;;;4.35;;
5341;SDS011;2693;48.822;9.062;2024-03-22T09:05:01;9.02;;;4.57;;
5341;SDS011;2693;48.822;9.062;2024-03-22T09:07:26;7.13;;;4.80;;
5341;SDS011;2693;48.822;9.062;2024-03-22T09:09:52;7.55;;;4.80;;
5341;SDS011;2693;48.822;9.062;2024-03-22T09:12:18;7.00;;;4.35;;
5341;SDS011;2693;48.822;9.062;2024-03-22T09:14:44;6.55;;;5.18;;
5341;SDS011;2693;48.822;9.062;2024-03-22T09:17:09;5.85;;;4.80;;
5341;SDS011;2693;48.822;9.062;2024-03-22T09:19:34;6.25;;;4.38;;
5341;SDS011;2693;48.822;9.062;2024-03-22T09:22:00;5.30;;;4.45;;
5341;SDS011;2693;48.822;9.062;2024-03-22T09:24:25;5.95;;;4.60;;
5341;SDS011;2693;48.822;9.062;2024-03-22T09:26:50;5.57;;;4.43;;
5341;SDS011;2693;48.822;9.062;2024-03-22T09:29:16;7.88;;;4.72;;
5341;SDS011;2693;48.822;9.062;2024-03-22T09:31:41;5.82;;;4.07;;
5341;SDS011;2693;48.822;9.062;2024-03-22T09:34:06;5.88;;;4.40;;
5341;SDS011;2693;48.822;9.062;2024-03-22T09:36:32;7.68;;;4.43;;
5341;SDS011;2693;48.822;9.062;2024-03-22T09:39:00;7.43;;;3.92;;
5341;SDS011;2693;48.822;9.062;2024-03-22T09:41:26;5.80;;;4.07;;
5341;SDS011;2693;48.822;9.062;2024-03-22T09:43:53;5.82;;;3.92;;
5341;SDS011;2693;48.822;9.062;2024-03-22T09:46:19;4.65;;;3.50;;
5341;SDS011;2693;48.822;9.062;2024-03-22T09:48:48;5.20;;;4.00;;
5341;SDS011;2693;48.822;9.062;2024-03-22T09:51:17;3.58;;;3.25;;
5341;SDS011;2693;48.822;9.062;2024-03-22T09:53:45;6.25;;;3.63;;
5341;SDS011;2693;48.822;9.062;2024-03-22T09:56:13;5.65;;;3.60;;
5341;SDS011;2693;48.822;9.062;2024-03-22T09:58:40;4.90;;;3.80;;
5341;SDS011;2693;48.822;9.062;2024-03-22T10:01:06;5.63;;;4.18;;
5341;SDS011;2693;48.822;9.062;2024-03-22T10:03:32;6.03;;;3.60;;
5341;SDS011;2693;48.822;9.062;2024-03-22T10:05:58;6.53;;;4.07;;
5341;SDS011;2693;48.822;9.062;2024-03-22T10:08:23;4.35;;;3.60;;
5341;SDS011;2693;48.822;9.062;2024-03-22T10:10:48;5.85;;;3.45;;
5341;SDS011;2693;48.822;9.062;2024-03-22T10:13:14;5.13;;;3.80;;
5341;SDS011;2693;48.822;9.062;2024-03-22T10:15:39;4.57;;;3.40;;
5341;SDS011;2693;48.822;9.062;2024-03-22T10:18:04;5.10;;;3.72;;
5341;SDS011;2693;48.822;9.062;2024-03-22T10:20:30;6.18;;;3.58;;
5341;SDS011;2693;48.822;9.062;2024-03-22T10:22:55;4.22;;;3.72;;
5341;SDS011;2693;48.822;9.062;2024-03-22T10:25:25;4.13;;;3.60;;
5341;SDS011;2693;48.822;9.062;2024-03-22T10:27:53;5.43;;;4.30;;
5341;SDS011;2693;48.822;9.062;2024-03-22T10:30:19;6.90;;;4.82;;
5341;SDS011;2693;48.822;9.062;2024-03-22T10:32:44;6.80;;;4.38;;
5341;SDS011;2693;48.822;9.062;2024-03-22T10:35:13;5.63;;;4.72;;
5341;SDS011;2693;48.822;9.062;2024-03-22T10:37:39;7.53;;;4.55;;
5341;SDS011;2693;48.822;9.062;2024-03-22T10:40:05;5.30;;;4.32;;
5341;SDS011;2693;48.822;9.062;2024-03-22T10:42:34;6.00;;;4.20;;
5341;SDS011;2693;48.822;9.062;2024-03-22T10:45:01;4.97;;;3.80;;
5341;SDS011;2693;48.822;9.062;2024-03-22T10:47:32;4.65;;;3.88;;
5341;SDS011;2693;48.822;9.062;2024-03-22T10:50:00;6.50;;;4.53;;
5341;SDS011;2693;48.822;9.062;2024-03-22T10:55:05;7.63;;;4.43;;
5341;SDS011;2693;48.822;9.062;2024-03-22T10:57:35;8.25;;;4.45;;
5341;SDS011;2693;48.822;9.062;2024-03-22T11:00:03;4.80;;;3.47;;
5341;SDS011;2693;48.822;9.062;2024-03-22T11:02:35;5.68;;;3.90;;
5341;SDS011;2693;48.822;9.062;2024-03-22T11:05:00;4.85;;;3.90;;
5341;SDS011;2693;48.822;9.062;2024-03-22T11:07:32;4.38;;;3.97;;
5341;SDS011;2693;48.822;9.062;2024-03-22T11:09:57;5.75;;;3.35;;
5341;SDS011;2693;48.822;9.062;2024-03-22T11:12:25;5.97;;;3.50;;
5341;SDS011;2693;48.822;9.062;2024-03-22T11:14:52;5.40;;;3.17;;
5341;SDS011;2693;48.822;9.062;2024-03-22T11:17:18;4.95;;;3.95;;
5341;SDS011;2693;48.822;9.062;2024-03-22T11:19:43;5.05;;;3.30;;
5341;SDS011;2693;48.822;9.062;2024-03-22T11:22:08;5.22;;;3.30;;
5341;SDS011;2693;48.822;9.062;2024-03-22T11:24:36;5.93;;;3.20;;
5341;SDS011;2693;48.822;9.062;2024-03-22T11:27:02;4.40;;;3.00;;
5341;SDS011;2693;48.822;9.062;2024-03-22T11:29:28;3.33;;;2.85;;
5341;SDS011;2693;48.822;9.062;2024-03-22T11:31:53;3.65;;;2.53;;
5341;SDS011;2693;48.822;9.062;2024-03-22T11:34:19;3.50;;;2.97;;
5341;SDS011;2693;48.822;9.062;2024-03-22T11:36:44;4.93;;;2.90;;
5341;SDS011;2693;48.822;9.062;2024-03-22T11:39:09;3.42;;;3.13;;
5341;SDS011;2693;48.822;9.062;2024-03-22T11:41:35;3.92;;;2.58;;
5341;SDS011;2693;48.822;9.062;2024-03-22T11:44:00;3.53;;;2.97;;
5341;SDS011;2693;48.822;9.062;2024-03-22T11:46:26;3.65;;;2.83;;
5341;SDS011;2693;48.822;9.062;2024-03-22T11:48:52;4.47;;;2.47;;
5341;SDS011;2693;48.822;9.062;2024-03-22T11:51:18;5.03;;;2.88;;
5341;SDS011;2693;48.822;9.062;2024-03-22T11:53:53;3.33;;;2.80;;
5341;SDS011;2693;48.822;9.062;2024-03-22T11:56:21;4.55;;;2.80;;
5341;SDS011;2693;48.822;9.062;2024-03-22T11:58:47;3.60;;;2.53;;
5341;SDS011;2693;48.822;9.062;2024-03-22T12:01:14;4.65;;;2.70;;
5341;SDS011;2693;48.822;9.062;2024-03-22T12:03:45;5.38;;;3.20;;
5341;SDS011;2693;48.822;9.062;2024-03-22T12:06:12;3.78;;;3.25;;
5341;SDS011;2693;48.822;9.062;2024-03-22T12:08:38;4.85;;;2.83;;
5341;SDS011;2693;48.822;9.062;2024-03-22T12:11:06;4.05;;;2.97;;
5341;SDS011;2693;48.822;9.062;2024-03-22T12:13:32;5.55;;;2.80;;
5341;SDS011;2693;48.822;9.062;2024-03-22T12:15:58;3.70;;;2.80;;
5341;SDS011;2693;48.822;9.062;2024-03-22T12:18:23;3.63;;;2.80;;
5341;SDS011;2693;48.822;9.062;2024-03-22T12:20:48;3.72;;;2.53;;
5341;SDS011;2693;48.822;9.062;2024-03-22T12:23:14;3.25;;;2.28;;
5341;SDS011;2693;48.822;9.062;2024-03-22T12:25:39;5.30;;;2.38;;
5341;SDS011;2693;48.822;9.062;2024-03-22T12:28:05;4.18;;;2.58;;
5341;SDS011;2693;48.822;9.062;2024-03-22T12:30:30;3.75;;;2.90;;
5341;SDS011;2693;48.822;9.062;2024-03-22T12:32:55;4.13;;;3.15;;
5341;SDS011;2693;48.822;9.062;2024-03-22T12:35:21;3.72;;;2.15;;
5341;SDS011;2693;48.822;9.062;2024-03-22T12:37:46;3.47;;;2.58;;
5341;SDS011;2693;48.822;9.062;2024-03-22T12:40:12;3.50;;;2.72;;
5341;SDS011;2693;48.822;9.062;2024-03-22T12:42:39;3.55;;;2.30;;
5341;SDS011;2693;48.822;9.062;2024-03-22T12:45:04;3.05;;;2.60;;
5341;SDS011;2693;48.822;9.062;2024-03-22T12:47:31;3.95;;;2.60;;
5341;SDS011;2693;48.822;9.062;2024-03-22T12:49:56;3.10;;;2.28;;
5341;SDS011;2693;48.822;9.062;2024-03-22T12:52:22;4.80;;;2.80;;
5341;SDS011;2693;48.822;9.062;2024-03-22T12:54:47;5.20;;;3.30;;
5341;SDS011;2693;48.822;9.062;2024-03-22T12:57:13;4.32;;;2.97;;
5341;SDS011;2693;48.822;9.062;2024-03-22T12:59:38;5.22;;;2.85;;
5341;SDS011;2693;48.822;9.062;2024-03-22T13:02:03;4.45;;;3.20;;
5341;SDS011;2693;48.822;9.062;2024-03-22T13:04:29;3.40;;;2.65;;
5341;SDS011;2693;48.822;9.062;2024-03-22T13:06:55;6.32;;;2.92;;
5341;SDS011;2693;48.822;9.062;2024-03-22T13:09:20;3.78;;;3.20;;
5341;SDS011;2693;48.822;9.062;2024-03-22T13:11:46;8.02;;;3.47;;
5341;SDS011;2693;48.822;9.062;2024-03-22T13:14:13;4.55;;;3.00;;
5341;SDS011;2693;48.822;9.062;2024-03-22T13:16:39;4.90;;;2.75;;
5341;SDS011;2693;48.822;9.062;2024-03-22T13:19:04;4.10;;;2.92;;
5341;SDS011;2693;48.822;9.062;2024-03-22T13:21:30;3.88;;;2.75;;
5341;SDS011;2693;48.822;9.062;2024-03-22T13:23:56;4.53;;;2.70;;
5341;SDS011;2693;48.822;9.062;2024-03-22T13:26:21;4.10;;;2.60;;
5341;SDS011;2693;48.822;9.062;2024-03-22T13:28:46;3.58;;;2.55;;
5341;SDS011;2693;48.822;9.062;2024-03-22T13:31:12;4.63;;;2.60;;
5341;SDS011;2693;48.822;9.062;2024-03-22T13:33:38;5.60;;;2.83;;
5341;SDS011;2693;48.822;9.062;2024-03-22T13:36:04;4.47;;;2.60;;
5341;SDS011;2693;48.822;9.062;2024-03-22T13:38:30;5.35;;;2.60;;
5341;SDS011;2693;48.822;9.062;2024-03-22T13:40:55;19.83;;;4.05;;
5341;SDS011;2693;48.822;9.062;2024-03-22T13:43:22;4.53;;;2.30;;
5341;SDS011;2693;48.822;9.062;2024-03-22T13:45:51;4.97;;;2.88;;
5341;SDS011;2693;48.822;9.062;2024-03-22T13:48:23;5.68;;;3.10;;
5341;SDS011;2693;48.822;9.062;2024-03-22T13:50:51;3.58;;;2.75;;
5341;SDS011;2693;48.822;9.062;2024-03-22T13:53:17;4.07;;;2.90;;
5341;SDS011;2693;48.822;9.062;2024-03-22T13:55:43;3.45;;;2.80;;
5341;SDS011;2693;48.822;9.062;2024-03-22T13:58:08;6.15;;;3.20;;
5341;SDS011;2693;48.822;9.062;2024-03-22T14:00:34;5.18;;;2.60;;
5341;SDS011;2693;48.822;9.062;2024-03-22T14:03:00;5.35;;;3.40;;
5341;SDS011;2693;48.822;9.062;2024-03-22T14:05:26;5.20;;;3.20;;
5341;SDS011;2693;48.822;9.062;2024-03-22T14:07:51;6.55;;;3.60;;
5341;SDS011;2693;48.822;9.062;2024-03-22T14:10:17;4.70;;;3.00;;
5341;SDS011;2693;48.822;9.062;2024-03-22T14:12:42;4.95;;;2.75;;
5341;SDS011;2693;48.822;9.062;2024-03-22T14:15:10;3.78;;;2.30;;
5341;SDS011;2693;48.822;9.062;2024-03-22T14:17:35;3.00;;;1.88;;
5341;SDS011;2693;48.822;9.062;2024-03-22T14:20:00;2.80;;;1.65;;
5341;SDS011;2693;48.822;9.062;2024-03-22T14:22:26;2.95;;;1.38;;
5341;SDS011;2693;48.822;9.062;2024-03-22T14:24:51;3.35;;;1.65;;
5341;SDS011;2693;48.822;9.062;2024-03-22T14:27:17;2.58;;;1.60;;
5341;SDS011;2693;48.822;9.062;2024-03-22T14:29:44;2.25;;;1.80;;
5341;SDS011;2693;48.822;9.062;2024-03-22T14:32:10;2.25;;;1.45;;
5341;SDS011;2693;48.822;9.062;2024-03-22T14:34:36;6.20;;;1.80;;
5341;SDS011;2693;48.822;9.062;2024-03-22T14:37:02;3.10;;;1.45;;
5341;SDS011;2693;48.822;9.062;2024-03-22T14:39:29;4.38;;;1.50;;
5341;SDS011;2693;48.822;9.062;2024-03-22T14:41:54;2.42;;;1.58;;
5341;SDS011;2693;48.822;9.062;2024-03-22T14:44:20;2.13;;;1.20;;
5341;SDS011;2693;48.822;9.062;2024-03-22T14:46:45;2.50;;;1.52;;
5341;SDS011;2693;48.822;9.062;2024-03-22T14:49:10;2.65;;;1.33;;
5341;SDS011;2693;48.822;9.062;2024-03-22T14:51:37;2.40;;;1.50;;
5341;SDS011;2693;48.822;9.062;2024-03-22T14:54:02;3.72;;;1.40;;
5341;SDS011;2693;48.822;9.062;2024-03-22T14:56:29;2.03;;;1.58;;
5341;SDS011;2693;48.822;9.062;2024-03-22T14:58:55;2.75;;;1.55;;
5341;SDS011;2693;48.822;9.062;2024-03-22T15:01:22;4.43;;;1.30;;